sensor_id;sensor_type;location;lat;lon;timestamp;P1;durP1;ratioP1;P2;durP2;ratioP2
19221;SDS011;9745;50.828;4.378;2023-04-28T00:02:08;37.63;;;21.63;;
19221;SDS011;9745;50.828;4.378;2023-04-28T00:04:34;37.63;;;21.53;;
19221;SDS011;9745;50.828;4.378;2023-04-28T00:07:00;37.80;;;21.17;;
19221;SDS011;9745;50.828;4.378;2023-04-28T00:09:26;37.40;;;21.60;;
19221;SDS011;9745;50.828;4.378;2023-04-28T00:11:52;36.20;;;22.23;;
19221;SDS011;9745;50.828;4.378;2023-04-28T00:14:18;41.70;;;23.00;;
19221;SDS011;9745;50.828;4.378;2023-04-28T00:16:44;42.37;;;24.17;;
19221;SDS011;9745;50.828;4.378;2023-04-28T00:19:10;42.93;;;24.50;;
19221;SDS011;9745;50.828;4.378;2023-04-28T00:21:36;46.57;;;24.33;;
19221;SDS011;9745;50.828;4.378;2023-04-28T00:24:02;39.10;;;24.03;;
19221;SDS011;9745;50.828;4.378;2023-04-28T00:26:28;44.87;;;25.10;;
19221;SDS011;9745;50.828;4.378;2023-04-28T00:28:54;43.47;;;24.93;;
19221;SDS011;9745;50.828;4.378;2023-04-28T00:31:20;50.00;;;26.60;;
19221;SDS011;9745;50.828;4.378;2023-04-28T00:33:46;42.87;;;25.93;;
19221;SDS011;9745;50.828;4.378;2023-04-28T00:36:12;53.30;;;27.07;;
19221;SDS011;9745;50.828;4.378;2023-04-28T00:38:38;42.63;;;25.60;;
19221;SDS011;9745;50.828;4.378;2023-04-28T00:41:04;52.23;;;28.03;;
19221;SDS011;9745;50.828;4.378;2023-04-28T00:43:30;51.17;;;28.03;;
19221;SDS011;9745;50.828;4.378;2023-04-28T00:45:56;50.03;;;25.67;;
19221;SDS011;9745;50.828;4.378;2023-04-28T00:48:22;47.93;;;26.87;;
19221;SDS011;9745;50.828;4.378;2023-04-28T00:50:48;49.07;;;27.90;;
19221;SDS011;9745;50.828;4.378;2023-04-28T00:53:14;47.73;;;27.47;;
19221;SDS011;9745;50.828;4.378;2023-04-28T00:55:40;43.03;;;26.60;;
19221;SDS011;9745;50.828;4.378;2023-04-28T00:58:06;46.03;;;25.50;;
19221;SDS011;9745;50.828;4.378;2023-04-28T01:00:33;52.20;;;27.30;;
19221;SDS011;9745;50.828;4.378;2023-04-28T01:02:59;40.17;;;25.10;;
19221;SDS011;9745;50.828;4.378;2023-04-28T01:05:25;44.37;;;26.20;;
19221;SDS011;9745;50.828;4.378;2023-04-28T01:07:51;47.73;;;26.93;;
19221;SDS011;9745;50.828;4.378;2023-04-28T01:10:18;47.50;;;26.10;;
19221;SDS011;9745;50.828;4.378;2023-04-28T01:12:44;49.33;;;26.70;;
19221;SDS011;9745;50.828;4.378;2023-04-28T01:15:12;49.20;;;27.40;;
19221;SDS011;9745;50.828;4.378;2023-04-28T01:17:40;42.67;;;25.63;;
19221;SDS011;9745;50.828;4.378;2023-04-28T01:20:06;44.03;;;25.43;;
19221;SDS011;9745;50.828;4.378;2023-04-28T01:22:32;39.30;;;25.47;;
19221;SDS011;9745;50.828;4.378;2023-04-28T01:24:58;44.43;;;26.53;;
19221;SDS011;9745;50.828;4.378;2023-04-28T01:27:24;46.13;;;27.23;;
19221;SDS011;9745;50.828;4.378;2023-04-28T01:29:50;46.63;;;26.20;;
19221;SDS011;9745;50.828;4.378;2023-04-28T01:32:16;41.97;;;26.23;;
19221;SDS011;9745;50.828;4.378;2023-04-28T01:34:42;45.03;;;24.87;;
19221;SDS011;9745;50.828;4.378;2023-04-28T01:37:08;46.83;;;27.07;;
19221;SDS011;9745;50.828;4.378;2023-04-28T01:39:34;45.67;;;25.80;;
19221;SDS011;9745;50.828;4.378;2023-04-28T01:42:00;46.03;;;26.27;;
19221;SDS011;9745;50.828;4.378;2023-04-28T01:44:26;46.43;;;27.17;;
19221;SDS011;9745;50.828;4.378;2023-04-28T01:46:52;42.80;;;25.77;;
19221;SDS011;9745;50.828;4.378;2023-04-28T01:49:18;51.67;;;26.97;;
19221;SDS011;9745;50.828;4.378;2023-04-28T01:51:44;42.67;;;25.03;;
19221;SDS011;9745;50.828;4.378;2023-04-28T01:54:10;45.23;;;26.37;;
19221;SDS011;9745;50.828;4.378;2023-04-28T01:56:36;43.27;;;25.40;;
19221;SDS011;9745;50.828;4.378;2023-04-28T01:59:02;50.40;;;28.10;;
19221;SDS011;9745;50.828;4.378;2023-04-28T02:01:28;49.13;;;26.93;;
19221;SDS011;9745;50.828;4.378;2023-04-28T02:03:54;50.53;;;28.07;;
19221;SDS011;9745;50.828;4.378;2023-04-28T02:06:20;50.57;;;27.37;;
19221;SDS011;9745;50.828;4.378;2023-04-28T02:08:46;49.57;;;28.47;;
19221;SDS011;9745;50.828;4.378;2023-04-28T02:11:12;51.50;;;29.13;;
19221;SDS011;9745;50.828;4.378;2023-04-28T02:13:38;50.50;;;28.47;;
19221;SDS011;9745;50.828;4.378;2023-04-28T02:16:04;49.03;;;28.17;;
19221;SDS011;9745;50.828;4.378;2023-04-28T02:18:30;55.10;;;30.20;;
19221;SDS011;9745;50.828;4.378;2023-04-28T02:20:56;52.03;;;29.17;;
19221;SDS011;9745;50.828;4.378;2023-04-28T02:23:23;51.67;;;29.60;;
19221;SDS011;9745;50.828;4.378;2023-04-28T02:25:48;55.20;;;30.70;;
19221;SDS011;9745;50.828;4.378;2023-04-28T02:28:14;47.00;;;29.00;;
19221;SDS011;9745;50.828;4.378;2023-04-28T02:30:40;48.70;;;29.73;;
19221;SDS011;9745;50.828;4.378;2023-04-28T02:33:06;52.73;;;31.83;;
19221;SDS011;9745;50.828;4.378;2023-04-28T02:35:32;55.77;;;31.50;;
19221;SDS011;9745;50.828;4.378;2023-04-28T02:37:58;57.73;;;33.10;;
19221;SDS011;9745;50.828;4.378;2023-04-28T02:40:24;54.67;;;30.40;;
19221;SDS011;9745;50.828;4.378;2023-04-28T02:42:50;51.70;;;29.80;;
19221;SDS011;9745;50.828;4.378;2023-04-28T02:45:16;53.23;;;28.73;;
19221;SDS011;9745;50.828;4.378;2023-04-28T02:47:42;50.97;;;30.43;;
19221;SDS011;9745;50.828;4.378;2023-04-28T02:50:08;53.77;;;31.17;;
19221;SDS011;9745;50.828;4.378;2023-04-28T02:52:35;54.93;;;30.53;;
19221;SDS011;9745;50.828;4.378;2023-04-28T02:55:01;52.53;;;31.43;;
19221;SDS011;9745;50.828;4.378;2023-04-28T02:57:28;58.80;;;32.60;;
19221;SDS011;9745;50.828;4.378;2023-04-28T02:59:54;51.83;;;30.43;;
19221;SDS011;9745;50.828;4.378;2023-04-28T03:02:21;51.73;;;29.63;;
19221;SDS011;9745;50.828;4.378;2023-04-28T03:04:47;52.73;;;30.73;;
19221;SDS011;9745;50.828;4.378;2023-04-28T03:07:13;51.13;;;29.83;;
19221;SDS011;9745;50.828;4.378;2023-04-28T03:09:39;48.87;;;30.03;;
19221;SDS011;9745;50.828;4.378;2023-04-28T03:12:05;57.97;;;29.60;;
19221;SDS011;9745;50.828;4.378;2023-04-28T03:14:31;47.77;;;29.00;;
19221;SDS011;9745;50.828;4.378;2023-04-28T03:16:57;50.17;;;28.50;;
19221;SDS011;9745;50.828;4.378;2023-04-28T03:19:23;51.27;;;29.20;;
19221;SDS011;9745;50.828;4.378;2023-04-28T03:21:50;49.03;;;28.83;;
19221;SDS011;9745;50.828;4.378;2023-04-28T03:24:16;51.87;;;28.80;;
19221;SDS011;9745;50.828;4.378;2023-04-28T03:26:42;50.20;;;28.53;;
19221;SDS011;9745;50.828;4.378;2023-04-28T03:29:08;59.67;;;31.60;;
19221;SDS011;9745;50.828;4.378;2023-04-28T03:31:34;53.47;;;30.43;;
19221;SDS011;9745;50.828;4.378;2023-04-28T03:34:00;55.83;;;32.17;;
19221;SDS011;9745;50.828;4.378;2023-04-28T03:36:27;61.50;;;31.27;;
19221;SDS011;9745;50.828;4.378;2023-04-28T03:38:53;62.67;;;32.03;;
19221;SDS011;9745;50.828;4.378;2023-04-28T03:41:19;54.10;;;31.10;;
19221;SDS011;9745;50.828;4.378;2023-04-28T03:43:45;58.13;;;33.53;;
19221;SDS011;9745;50.828;4.378;2023-04-28T03:46:11;53.23;;;31.53;;
19221;SDS011;9745;50.828;4.378;2023-04-28T03:48:37;55.60;;;30.27;;
19221;SDS011;9745;50.828;4.378;2023-04-28T03:51:03;52.83;;;30.50;;
19221;SDS011;9745;50.828;4.378;2023-04-28T03:53:29;54.43;;;31.97;;
19221;SDS011;9745;50.828;4.378;2023-04-28T03:55:55;57.40;;;32.30;;
19221;SDS011;9745;50.828;4.378;2023-04-28T03:58:21;56.20;;;31.67;;
19221;SDS011;9745;50.828;4.378;2023-04-28T04:00:47;54.40;;;30.97;;
19221;SDS011;9745;50.828;4.378;2023-04-28T04:03:13;56.30;;;31.13;;
19221;SDS011;9745;50.828;4.378;2023-04-28T04:05:39;58.30;;;31.60;;
19221;SDS011;9745;50.828;4.378;2023-04-28T04:08:05;58.70;;;32.30;;
19221;SDS011;9745;50.828;4.378;2023-04-28T04:10:31;59.00;;;33.03;;
19221;SDS011;9745;50.828;4.378;2023-04-28T04:12:58;58.87;;;32.43;;
19221;SDS011;9745;50.828;4.378;2023-04-28T04:15:24;54.00;;;31.30;;
19221;SDS011;9745;50.828;4.378;2023-04-28T04:17:50;58.30;;;33.43;;
19221;SDS011;9745;50.828;4.378;2023-04-28T04:20:16;56.47;;;31.70;;
19221;SDS011;9745;50.828;4.378;2023-04-28T04:22:42;52.53;;;32.17;;
19221;SDS011;9745;50.828;4.378;2023-04-28T04:25:08;49.73;;;30.87;;
19221;SDS011;9745;50.828;4.378;2023-04-28T04:27:34;58.07;;;31.97;;
19221;SDS011;9745;50.828;4.378;2023-04-28T04:30:00;55.70;;;30.77;;
19221;SDS011;9745;50.828;4.378;2023-04-28T04:32:26;57.40;;;31.60;;
19221;SDS011;9745;50.828;4.378;2023-04-28T04:34:52;53.40;;;32.13;;
19221;SDS011;9745;50.828;4.378;2023-04-28T04:37:18;53.93;;;31.40;;
19221;SDS011;9745;50.828;4.378;2023-04-28T04:39:44;47.93;;;31.30;;
19221;SDS011;9745;50.828;4.378;2023-04-28T04:42:10;50.13;;;31.63;;
19221;SDS011;9745;50.828;4.378;2023-04-28T04:44:36;51.77;;;30.57;;
19221;SDS011;9745;50.828;4.378;2023-04-28T04:47:02;54.90;;;30.53;;
19221;SDS011;9745;50.828;4.378;2023-04-28T04:49:28;46.27;;;29.83;;
19221;SDS011;9745;50.828;4.378;2023-04-28T04:51:54;52.00;;;31.07;;
19221;SDS011;9745;50.828;4.378;2023-04-28T04:54:20;49.87;;;29.63;;
19221;SDS011;9745;50.828;4.378;2023-04-28T04:56:46;52.93;;;31.27;;
19221;SDS011;9745;50.828;4.378;2023-04-28T04:59:12;51.77;;;30.03;;
19221;SDS011;9745;50.828;4.378;2023-04-28T05:01:38;46.67;;;28.57;;
19221;SDS011;9745;50.828;4.378;2023-04-28T05:04:04;53.50;;;30.93;;
19221;SDS011;9745;50.828;4.378;2023-04-28T05:06:30;52.63;;;31.70;;
19221;SDS011;9745;50.828;4.378;2023-04-28T05:08:57;60.80;;;31.13;;
19221;SDS011;9745;50.828;4.378;2023-04-28T05:11:23;48.20;;;29.27;;
19221;SDS011;9745;50.828;4.378;2023-04-28T05:13:50;56.43;;;30.43;;
19221;SDS011;9745;50.828;4.378;2023-04-28T05:16:16;41.30;;;24.37;;
19221;SDS011;9745;50.828;4.378;2023-04-28T05:18:42;35.17;;;21.87;;
19221;SDS011;9745;50.828;4.378;2023-04-28T05:21:08;27.80;;;16.57;;
19221;SDS011;9745;50.828;4.378;2023-04-28T05:23:35;18.00;;;11.30;;
19221;SDS011;9745;50.828;4.378;2023-04-28T05:26:01;17.90;;;10.13;;
19221;SDS011;9745;50.828;4.378;2023-04-28T05:28:28;15.07;;;10.23;;
19221;SDS011;9745;50.828;4.378;2023-04-28T05:30:54;13.33;;;8.90;;
19221;SDS011;9745;50.828;4.378;2023-04-28T05:33:21;13.80;;;9.23;;
19221;SDS011;9745;50.828;4.378;2023-04-28T05:35:48;13.80;;;8.73;;
19221;SDS011;9745;50.828;4.378;2023-04-28T05:38:14;12.63;;;8.90;;
19221;SDS011;9745;50.828;4.378;2023-04-28T05:40:40;13.23;;;8.77;;
19221;SDS011;9745;50.828;4.378;2023-04-28T05:43:06;11.63;;;8.20;;
19221;SDS011;9745;50.828;4.378;2023-04-28T05:45:32;14.60;;;9.07;;
19221;SDS011;9745;50.828;4.378;2023-04-28T05:47:59;11.27;;;8.43;;
19221;SDS011;9745;50.828;4.378;2023-04-28T05:50:25;12.47;;;8.70;;
19221;SDS011;9745;50.828;4.378;2023-04-28T05:52:52;10.83;;;8.53;;
19221;SDS011;9745;50.828;4.378;2023-04-28T05:55:18;12.40;;;8.67;;
19221;SDS011;9745;50.828;4.378;2023-04-28T05:57:44;9.80;;;8.00;;
19221;SDS011;9745;50.828;4.378;2023-04-28T06:00:10;17.97;;;8.47;;
19221;SDS011;9745;50.828;4.378;2023-04-28T06:02:36;10.00;;;8.50;;
19221;SDS011;9745;50.828;4.378;2023-04-28T06:05:03;10.13;;;8.37;;
19221;SDS011;9745;50.828;4.378;2023-04-28T06:07:29;9.40;;;8.03;;
19221;SDS011;9745;50.828;4.378;2023-04-28T06:09:55;10.40;;;8.43;;
19221;SDS011;9745;50.828;4.378;2023-04-28T06:12:21;10.50;;;7.93;;
19221;SDS011;9745;50.828;4.378;2023-04-28T06:14:47;10.33;;;7.77;;
19221;SDS011;9745;50.828;4.378;2023-04-28T06:17:13;10.13;;;7.90;;
19221;SDS011;9745;50.828;4.378;2023-04-28T06:19:39;11.83;;;7.80;;
19221;SDS011;9745;50.828;4.378;2023-04-28T06:22:05;9.83;;;7.47;;
19221;SDS011;9745;50.828;4.378;2023-04-28T06:24:32;8.47;;;7.27;;
19221;SDS011;9745;50.828;4.378;2023-04-28T06:26:58;8.37;;;6.57;;
19221;SDS011;9745;50.828;4.378;2023-04-28T06:29:24;7.90;;;6.33;;
19221;SDS011;9745;50.828;4.378;2023-04-28T06:31:51;8.67;;;6.97;;
19221;SDS011;9745;50.828;4.378;2023-04-28T06:34:21;10.17;;;6.13;;
19221;SDS011;9745;50.828;4.378;2023-04-28T06:36:47;7.97;;;6.07;;
19221;SDS011;9745;50.828;4.378;2023-04-28T06:39:13;9.50;;;5.57;;
19221;SDS011;9745;50.828;4.378;2023-04-28T06:41:39;7.97;;;5.73;;
19221;SDS011;9745;50.828;4.378;2023-04-28T06:44:05;8.27;;;6.00;;
19221;SDS011;9745;50.828;4.378;2023-04-28T06:46:31;7.33;;;5.93;;
19221;SDS011;9745;50.828;4.378;2023-04-28T06:48:57;10.50;;;6.67;;
19221;SDS011;9745;50.828;4.378;2023-04-28T06:51:23;10.17;;;5.63;;
19221;SDS011;9745;50.828;4.378;2023-04-28T06:53:50;7.87;;;5.60;;
19221;SDS011;9745;50.828;4.378;2023-04-28T06:56:17;6.33;;;5.30;;
19221;SDS011;9745;50.828;4.378;2023-04-28T06:58:43;6.80;;;5.73;;
19221;SDS011;9745;50.828;4.378;2023-04-28T07:01:09;8.47;;;5.67;;
19221;SDS011;9745;50.828;4.378;2023-04-28T07:03:35;8.50;;;5.00;;
19221;SDS011;9745;50.828;4.378;2023-04-28T07:06:02;6.60;;;5.27;;
19221;SDS011;9745;50.828;4.378;2023-04-28T07:08:28;5.20;;;4.33;;
19221;SDS011;9745;50.828;4.378;2023-04-28T07:10:54;6.00;;;4.93;;
19221;SDS011;9745;50.828;4.378;2023-04-28T07:13:21;7.27;;;4.50;;
19221;SDS011;9745;50.828;4.378;2023-04-28T07:15:47;5.60;;;4.03;;
19221;SDS011;9745;50.828;4.378;2023-04-28T07:18:13;6.43;;;4.53;;
19221;SDS011;9745;50.828;4.378;2023-04-28T07:20:39;5.00;;;3.83;;
19221;SDS011;9745;50.828;4.378;2023-04-28T07:23:05;6.97;;;4.50;;
19221;SDS011;9745;50.828;4.378;2023-04-28T07:25:31;6.90;;;5.40;;
19221;SDS011;9745;50.828;4.378;2023-04-28T07:27:57;7.03;;;4.87;;
19221;SDS011;9745;50.828;4.378;2023-04-28T07:30:23;5.57;;;5.00;;
19221;SDS011;9745;50.828;4.378;2023-04-28T07:32:50;6.93;;;5.47;;
19221;SDS011;9745;50.828;4.378;2023-04-28T07:35:16;6.00;;;4.67;;
19221;SDS011;9745;50.828;4.378;2023-04-28T07:37:42;8.40;;;4.43;;
19221;SDS011;9745;50.828;4.378;2023-04-28T07:40:08;4.97;;;4.23;;
19221;SDS011;9745;50.828;4.378;2023-04-28T07:42:34;4.40;;;4.00;;
19221;SDS011;9745;50.828;4.378;2023-04-28T07:45:00;3.73;;;3.10;;
19221;SDS011;9745;50.828;4.378;2023-04-28T07:47:27;3.80;;;2.40;;
19221;SDS011;9745;50.828;4.378;2023-04-28T07:49:53;3.07;;;2.47;;
19221;SDS011;9745;50.828;4.378;2023-04-28T07:52:19;3.87;;;2.10;;
19221;SDS011;9745;50.828;4.378;2023-04-28T07:54:45;2.57;;;2.20;;
19221;SDS011;9745;50.828;4.378;2023-04-28T07:57:11;4.27;;;2.07;;
19221;SDS011;9745;50.828;4.378;2023-04-28T07:59:37;4.53;;;1.90;;
19221;SDS011;9745;50.828;4.378;2023-04-28T08:02:03;4.23;;;1.77;;
19221;SDS011;9745;50.828;4.378;2023-04-28T08:04:30;2.67;;;2.20;;
19221;SDS011;9745;50.828;4.378;2023-04-28T08:06:58;2.80;;;1.30;;
19221;SDS011;9745;50.828;4.378;2023-04-28T08:09:24;1.90;;;1.47;;
19221;SDS011;9745;50.828;4.378;2023-04-28T08:11:50;2.57;;;1.33;;
19221;SDS011;9745;50.828;4.378;2023-04-28T08:14:16;2.93;;;1.27;;
19221;SDS011;9745;50.828;4.378;2023-04-28T08:16:43;1.23;;;1.07;;
19221;SDS011;9745;50.828;4.378;2023-04-28T08:19:10;4.60;;;1.20;;
19221;SDS011;9745;50.828;4.378;2023-04-28T08:21:36;3.70;;;1.03;;
19221;SDS011;9745;50.828;4.378;2023-04-28T08:24:02;1.00;;;0.90;;
19221;SDS011;9745;50.828;4.378;2023-04-28T08:26:28;2.17;;;1.10;;
19221;SDS011;9745;50.828;4.378;2023-04-28T08:28:55;2.57;;;1.00;;
19221;SDS011;9745;50.828;4.378;2023-04-28T08:31:21;3.80;;;1.10;;
19221;SDS011;9745;50.828;4.378;2023-04-28T08:33:47;0.83;;;0.80;;
19221;SDS011;9745;50.828;4.378;2023-04-28T08:36:15;1.07;;;0.80;;
19221;SDS011;9745;50.828;4.378;2023-04-28T08:38:42;2.67;;;1.20;;
19221;SDS011;9745;50.828;4.378;2023-04-28T08:41:08;1.43;;;1.13;;
19221;SDS011;9745;50.828;4.378;2023-04-28T08:43:34;1.60;;;0.90;;
19221;SDS011;9745;50.828;4.378;2023-04-28T08:46:04;1.33;;;0.90;;
19221;SDS011;9745;50.828;4.378;2023-04-28T08:48:31;1.90;;;0.70;;
19221;SDS011;9745;50.828;4.378;2023-04-28T08:51:03;1.83;;;0.60;;
19221;SDS011;9745;50.828;4.378;2023-04-28T08:53:31;2.30;;;0.60;;
19221;SDS011;9745;50.828;4.378;2023-04-28T08:56:01;6.47;;;0.77;;
19221;SDS011;9745;50.828;4.378;2023-04-28T08:58:28;3.73;;;0.70;;
19221;SDS011;9745;50.828;4.378;2023-04-28T09:00:54;0.60;;;0.40;;
19221;SDS011;9745;50.828;4.378;2023-04-28T09:03:20;0.77;;;0.40;;
19221;SDS011;9745;50.828;4.378;2023-04-28T09:05:46;1.53;;;0.30;;
19221;SDS011;9745;50.828;4.378;2023-04-28T09:08:13;1.27;;;0.57;;
19221;SDS011;9745;50.828;4.378;2023-04-28T09:10:39;0.60;;;0.40;;
19221;SDS011;9745;50.828;4.378;2023-04-28T09:13:05;0.70;;;0.47;;
19221;SDS011;9745;50.828;4.378;2023-04-28T09:15:38;3.23;;;0.70;;
19221;SDS011;9745;50.828;4.378;2023-04-28T09:18:09;0.80;;;0.60;;
19221;SDS011;9745;50.828;4.378;2023-04-28T09:20:39;2.07;;;1.10;;
19221;SDS011;9745;50.828;4.378;2023-04-28T09:25:37;0.30;;;0.30;;
19221;SDS011;9745;50.828;4.378;2023-04-28T09:28:21;3.70;;;0.50;;
19221;SDS011;9745;50.828;4.378;2023-04-28T09:30:48;1.30;;;0.53;;
19221;SDS011;9745;50.828;4.378;2023-04-28T09:33:14;0.90;;;0.60;;
19221;SDS011;9745;50.828;4.378;2023-04-28T09:35:43;1.60;;;0.80;;
19221;SDS011;9745;50.828;4.378;2023-04-28T09:38:11;2.03;;;0.73;;
19221;SDS011;9745;50.828;4.378;2023-04-28T09:40:53;1.93;;;0.93;;
19221;SDS011;9745;50.828;4.378;2023-04-28T09:45:51;5.63;;;1.43;;
19221;SDS011;9745;50.828;4.378;2023-04-28T09:48:25;3.20;;;1.53;;
19221;SDS011;9745;50.828;4.378;2023-04-28T09:50:52;4.37;;;1.67;;
19221;SDS011;9745;50.828;4.378;2023-04-28T09:53:19;2.83;;;1.60;;
19221;SDS011;9745;50.828;4.378;2023-04-28T09:55:47;3.37;;;2.20;;
19221;SDS011;9745;50.828;4.378;2023-04-28T09:58:14;4.10;;;3.23;;
19221;SDS011;9745;50.828;4.378;2023-04-28T10:00:41;4.10;;;3.50;;
19221;SDS011;9745;50.828;4.378;2023-04-28T10:03:07;4.10;;;3.37;;
19221;SDS011;9745;50.828;4.378;2023-04-28T10:05:33;3.60;;;3.30;;
19221;SDS011;9745;50.828;4.378;2023-04-28T10:08:01;5.17;;;3.27;;
19221;SDS011;9745;50.828;4.378;2023-04-28T10:10:27;5.27;;;4.00;;
19221;SDS011;9745;50.828;4.378;2023-04-28T10:12:53;3.10;;;2.80;;
19221;SDS011;9745;50.828;4.378;2023-04-28T10:15:20;1.93;;;1.83;;
19221;SDS011;9745;50.828;4.378;2023-04-28T10:17:47;2.30;;;2.10;;
19221;SDS011;9745;50.828;4.378;2023-04-28T10:20:14;6.87;;;4.67;;
19221;SDS011;9745;50.828;4.378;2023-04-28T10:22:51;5.03;;;4.53;;
19221;SDS011;9745;50.828;4.378;2023-04-28T10:25:25;2.53;;;2.10;;
19221;SDS011;9745;50.828;4.378;2023-04-28T10:27:51;2.17;;;1.80;;
19221;SDS011;9745;50.828;4.378;2023-04-28T10:30:18;6.33;;;1.23;;
19221;SDS011;9745;50.828;4.378;2023-04-28T10:32:45;1.30;;;1.00;;
19221;SDS011;9745;50.828;4.378;2023-04-28T10:38:02;2.20;;;0.73;;
19221;SDS011;9745;50.828;4.378;2023-04-28T10:43:00;2.10;;;1.10;;
19221;SDS011;9745;50.828;4.378;2023-04-28T10:48:11;3.20;;;1.50;;
19221;SDS011;9745;50.828;4.378;2023-04-28T10:50:41;1.83;;;1.03;;
19221;SDS011;9745;50.828;4.378;2023-04-28T10:53:26;5.07;;;1.80;;
19221;SDS011;9745;50.828;4.378;2023-04-28T10:58:39;1.97;;;1.20;;
19221;SDS011;9745;50.828;4.378;2023-04-28T11:06:19;2.03;;;1.17;;
19221;SDS011;9745;50.828;4.378;2023-04-28T11:08:45;3.80;;;1.40;;
19221;SDS011;9745;50.828;4.378;2023-04-28T11:11:12;2.50;;;1.77;;
19221;SDS011;9745;50.828;4.378;2023-04-28T11:13:38;2.70;;;1.60;;
19221;SDS011;9745;50.828;4.378;2023-04-28T11:16:05;3.77;;;1.80;;
19221;SDS011;9745;50.828;4.378;2023-04-28T11:18:43;2.63;;;2.37;;
19221;SDS011;9745;50.828;4.378;2023-04-28T11:21:14;4.60;;;2.63;;
19221;SDS011;9745;50.828;4.378;2023-04-28T11:23:40;3.20;;;3.00;;
19221;SDS011;9745;50.828;4.378;2023-04-28T11:26:07;6.13;;;3.03;;
19221;SDS011;9745;50.828;4.378;2023-04-28T11:28:33;4.20;;;3.10;;
19221;SDS011;9745;50.828;4.378;2023-04-28T11:31:12;3.27;;;2.67;;
19221;SDS011;9745;50.828;4.378;2023-04-28T11:33:42;4.97;;;3.20;;
19221;SDS011;9745;50.828;4.378;2023-04-28T11:36:20;4.57;;;2.50;;
19221;SDS011;9745;50.828;4.378;2023-04-28T11:38:46;4.67;;;2.20;;
19221;SDS011;9745;50.828;4.378;2023-04-28T11:41:13;2.50;;;2.07;;
19221;SDS011;9745;50.828;4.378;2023-04-28T11:43:39;3.27;;;1.70;;
19221;SDS011;9745;50.828;4.378;2023-04-28T11:46:08;1.37;;;1.20;;
19221;SDS011;9745;50.828;4.378;2023-04-28T11:48:35;3.87;;;1.20;;
19221;SDS011;9745;50.828;4.378;2023-04-28T11:51:01;1.60;;;1.00;;
19221;SDS011;9745;50.828;4.378;2023-04-28T11:53:43;3.17;;;1.40;;
19221;SDS011;9745;50.828;4.378;2023-04-28T11:56:09;3.77;;;1.13;;
19221;SDS011;9745;50.828;4.378;2023-04-28T11:58:37;2.40;;;1.20;;
19221;SDS011;9745;50.828;4.378;2023-04-28T12:01:10;2.73;;;0.87;;
19221;SDS011;9745;50.828;4.378;2023-04-28T12:03:43;4.17;;;1.07;;
19221;SDS011;9745;50.828;4.378;2023-04-28T12:06:09;1.13;;;0.83;;
19221;SDS011;9745;50.828;4.378;2023-04-28T12:08:35;2.93;;;1.23;;
19221;SDS011;9745;50.828;4.378;2023-04-28T12:11:07;2.63;;;0.80;;
19221;SDS011;9745;50.828;4.378;2023-04-28T12:13:35;1.53;;;1.10;;
19221;SDS011;9745;50.828;4.378;2023-04-28T12:16:02;4.10;;;1.13;;
19221;SDS011;9745;50.828;4.378;2023-04-28T12:18:30;2.77;;;1.00;;
19221;SDS011;9745;50.828;4.378;2023-04-28T12:20:56;1.50;;;0.80;;
19221;SDS011;9745;50.828;4.378;2023-04-28T12:23:31;3.47;;;0.97;;
19221;SDS011;9745;50.828;4.378;2023-04-28T12:25:58;2.30;;;1.20;;
19221;SDS011;9745;50.828;4.378;2023-04-28T12:28:37;1.77;;;0.90;;
19221;SDS011;9745;50.828;4.378;2023-04-28T12:31:04;2.00;;;0.60;;
19221;SDS011;9745;50.828;4.378;2023-04-28T12:33:32;0.70;;;0.50;;
19221;SDS011;9745;50.828;4.378;2023-04-28T12:36:01;1.40;;;0.73;;
19221;SDS011;9745;50.828;4.378;2023-04-28T12:38:28;2.57;;;0.70;;
19221;SDS011;9745;50.828;4.378;2023-04-28T12:40:54;1.47;;;0.80;;
19221;SDS011;9745;50.828;4.378;2023-04-28T12:43:20;1.50;;;0.67;;
19221;SDS011;9745;50.828;4.378;2023-04-28T12:45:48;2.40;;;0.90;;
19221;SDS011;9745;50.828;4.378;2023-04-28T12:48:14;1.63;;;0.83;;
19221;SDS011;9745;50.828;4.378;2023-04-28T12:50:40;1.60;;;0.80;;
19221;SDS011;9745;50.828;4.378;2023-04-28T12:53:06;1.30;;;0.80;;
19221;SDS011;9745;50.828;4.378;2023-04-28T12:55:32;0.80;;;0.60;;
19221;SDS011;9745;50.828;4.378;2023-04-28T12:57:58;2.17;;;0.70;;
19221;SDS011;9745;50.828;4.378;2023-04-28T13:00:24;2.77;;;0.93;;
19221;SDS011;9745;50.828;4.378;2023-04-28T13:02:50;3.13;;;1.10;;
19221;SDS011;9745;50.828;4.378;2023-04-28T13:05:17;2.33;;;0.90;;
19221;SDS011;9745;50.828;4.378;2023-04-28T13:07:43;2.40;;;1.00;;
19221;SDS011;9745;50.828;4.378;2023-04-28T13:10:09;1.67;;;0.80;;
19221;SDS011;9745;50.828;4.378;2023-04-28T13:12:36;2.47;;;0.80;;
19221;SDS011;9745;50.828;4.378;2023-04-28T13:15:02;7.20;;;0.90;;
19221;SDS011;9745;50.828;4.378;2023-04-28T13:17:29;4.30;;;0.90;;
19221;SDS011;9745;50.828;4.378;2023-04-28T13:19:55;2.60;;;0.90;;
19221;SDS011;9745;50.828;4.378;2023-04-28T13:22:21;7.23;;;1.13;;
19221;SDS011;9745;50.828;4.378;2023-04-28T13:24:47;2.37;;;0.93;;
19221;SDS011;9745;50.828;4.378;2023-04-28T13:27:13;2.43;;;1.00;;
19221;SDS011;9745;50.828;4.378;2023-04-28T13:29:39;2.00;;;0.90;;
19221;SDS011;9745;50.828;4.378;2023-04-28T13:32:05;1.17;;;0.87;;
19221;SDS011;9745;50.828;4.378;2023-04-28T13:34:31;1.93;;;0.90;;
19221;SDS011;9745;50.828;4.378;2023-04-28T13:36:57;2.67;;;1.10;;
19221;SDS011;9745;50.828;4.378;2023-04-28T13:39:23;2.60;;;1.00;;
19221;SDS011;9745;50.828;4.378;2023-04-28T13:41:49;2.83;;;0.83;;
19221;SDS011;9745;50.828;4.378;2023-04-28T13:44:15;1.60;;;1.00;;
19221;SDS011;9745;50.828;4.378;2023-04-28T13:46:41;1.57;;;0.63;;
19221;SDS011;9745;50.828;4.378;2023-04-28T13:49:10;3.33;;;0.87;;
19221;SDS011;9745;50.828;4.378;2023-04-28T13:51:37;3.53;;;1.00;;
19221;SDS011;9745;50.828;4.378;2023-04-28T13:54:03;2.03;;;0.80;;
19221;SDS011;9745;50.828;4.378;2023-04-28T13:56:32;3.23;;;0.90;;
19221;SDS011;9745;50.828;4.378;2023-04-28T13:58:58;4.30;;;0.93;;
19221;SDS011;9745;50.828;4.378;2023-04-28T14:01:24;1.43;;;0.80;;
19221;SDS011;9745;50.828;4.378;2023-04-28T14:03:51;3.53;;;0.80;;
19221;SDS011;9745;50.828;4.378;2023-04-28T14:06:17;2.67;;;0.90;;
19221;SDS011;9745;50.828;4.378;2023-04-28T14:08:43;2.20;;;0.90;;
19221;SDS011;9745;50.828;4.378;2023-04-28T14:11:09;3.37;;;0.80;;
19221;SDS011;9745;50.828;4.378;2023-04-28T14:13:35;1.30;;;0.77;;
19221;SDS011;9745;50.828;4.378;2023-04-28T14:16:02;1.67;;;0.80;;
19221;SDS011;9745;50.828;4.378;2023-04-28T14:18:28;1.50;;;0.80;;
19221;SDS011;9745;50.828;4.378;2023-04-28T14:20:54;1.37;;;0.80;;
19221;SDS011;9745;50.828;4.378;2023-04-28T14:23:20;2.30;;;0.67;;
19221;SDS011;9745;50.828;4.378;2023-04-28T14:25:47;2.87;;;0.70;;
19221;SDS011;9745;50.828;4.378;2023-04-28T14:28:13;1.87;;;0.80;;
19221;SDS011;9745;50.828;4.378;2023-04-28T14:30:40;2.30;;;0.90;;
19221;SDS011;9745;50.828;4.378;2023-04-28T14:33:06;1.90;;;0.70;;
19221;SDS011;9745;50.828;4.378;2023-04-28T14:35:32;1.70;;;0.80;;
19221;SDS011;9745;50.828;4.378;2023-04-28T14:37:59;2.23;;;0.83;;
19221;SDS011;9745;50.828;4.378;2023-04-28T14:40:24;3.57;;;0.93;;
19221;SDS011;9745;50.828;4.378;2023-04-28T14:42:51;0.90;;;0.67;;
19221;SDS011;9745;50.828;4.378;2023-04-28T14:45:17;2.33;;;0.87;;
19221;SDS011;9745;50.828;4.378;2023-04-28T14:47:43;2.43;;;0.90;;
19221;SDS011;9745;50.828;4.378;2023-04-28T14:50:09;2.60;;;0.83;;
19221;SDS011;9745;50.828;4.378;2023-04-28T14:52:35;1.40;;;0.87;;
19221;SDS011;9745;50.828;4.378;2023-04-28T14:55:02;3.43;;;0.90;;
19221;SDS011;9745;50.828;4.378;2023-04-28T14:57:29;1.10;;;0.67;;
19221;SDS011;9745;50.828;4.378;2023-04-28T14:59:55;0.90;;;0.60;;
19221;SDS011;9745;50.828;4.378;2023-04-28T15:02:22;3.13;;;0.70;;
19221;SDS011;9745;50.828;4.378;2023-04-28T15:04:53;1.70;;;0.67;;
19221;SDS011;9745;50.828;4.378;2023-04-28T15:07:19;0.90;;;0.60;;
19221;SDS011;9745;50.828;4.378;2023-04-28T15:09:46;0.80;;;0.60;;